.
WxDataArchive / Data Records for 2007-04-30
2007-04-29 April 2007 2007-05-01

Data Records for Monday, 30 April 2007

Time	Temp	Chill	HIndex	Humid	Dewpt	 Wind 	HiWind	WindDir	Rain 	Barom 
-----	----	-----	------	-----	-----	------	------	-------	-----	----- 
00:00	68.3	68.3	68.3	45	46.1	3	10	248	0.00	29.826 
00:05	68.3	68.3	68.3	45	46.1	3	9	248	0.00	29.822 
00:10	68.4	68.4	68.4	45	46.2	3	7	270	0.00	29.823 
00:15	68.4	68.4	68.4	45	46.2	3	8	270	0.00	29.825 
00:20	68.4	68.4	68.4	45	46.2	4	10	248	0.00	29.825 
00:25	68.4	68.4	68.4	45	46.2	2	4	248	0.00	29.829 
00:30	68.4	68.4	68.4	45	46.2	4	9	248	0.00	29.826 
00:35	68.6	68.6	68.6	45	46.4	3	6	248	0.00	29.821 
00:40	68.8	68.8	68.8	45	46.6	3	8	248	0.00	29.818 
00:45	68.9	68.9	68.9	45	46.7	4	9	248	0.00	29.812 
00:50	69.1	69.1	69.1	44	46.3	4	9	248	0.00	29.806 
00:55	69.1	69.1	69.1	45	46.9	4	10	248	0.00	29.810 
01:00	69.1	69.1	69.1	45	46.9	4	10	248	0.00	29.809 
01:05	68.9	68.9	68.9	46	47.3	4	10	270	0.00	29.810 
01:10	68.9	68.9	68.9	46	47.3	3	9	248	0.00	29.819 
01:15	68.8	68.8	68.8	46	47.2	4	11	248	0.00	29.816 
01:20	68.6	68.6	68.6	47	47.6	4	15	270	0.00	29.813 
01:25	68.4	68.4	68.4	48	47.9	3	8	270	0.00	29.819 
01:30	68.1	68.1	68.1	48	47.7	3	10	248	0.00	29.819 
01:35	67.9	67.9	67.9	49	48.0	3	9	270	0.00	29.817 
01:40	67.8	67.8	67.8	49	47.9	3	11	270	0.00	29.818 
01:45	67.4	67.4	67.4	50	48.1	3	5	248	0.00	29.816 
01:50	67.1	67.1	67.1	51	48.4	2	5	248	0.00	29.815 
01:55	66.9	66.9	66.9	52	48.7	2	10	248	0.00	29.813 
02:00	66.6	66.6	66.6	52	48.4	2	6	248	0.00	29.817 
02:05	66.3	66.3	66.3	53	48.6	2	4	248	0.00	29.817 
02:10	66.1	66.1	66.1	54	49.0	1	4	248	0.00	29.815 
02:15	66.0	66.0	66.0	54	48.9	2	3	248	0.00	29.817 
02:20	65.8	65.8	65.8	55	49.2	1	2	270	0.00	29.816 
02:25	65.6	65.6	65.6	55	49.0	1	3	248	0.00	29.822 
02:30	65.6	65.6	65.6	56	49.5	1	4	248	0.00	29.826 
02:35	65.5	65.5	65.5	57	49.9	1	4	248	0.00	29.825 
02:40	65.3	65.3	65.3	57	49.7	1	5	248	0.00	29.826 
02:45	65.3	65.3	65.3	58	50.1	2	5	248	0.00	29.828 
02:50	66.0	66.0	66.0	57	50.3	3	7	270	0.00	29.828 
02:55	66.8	66.8	66.8	56	50.6	3	6	315	0.00	29.828 
03:00	67.3	67.3	67.3	56	51.1	2	6	270	0.00	29.830 
03:05	68.1	68.1	68.1	55	51.3	4	7	270	0.00	29.829 
03:10	68.9	68.9	68.9	54	51.6	3	11	292	0.00	29.829 
03:15	69.4	69.4	69.4	53	51.5	3	10	270	0.00	29.829 
03:20	69.6	69.6	69.6	53	51.7	4	9	270	0.00	29.829 
03:25	69.8	69.8	69.8	53	51.9	3	6	315	0.00	29.832 
03:30	69.4	69.4	69.4	53	51.5	2	5	270	0.00	29.833 
03:35	69.3	69.3	69.3	54	51.9	2	6	315	0.00	29.838 
03:40	68.9	68.9	68.9	54	51.6	2	7	270	0.00	29.841 
03:45	68.8	68.8	68.8	55	52.0	1	5	315	0.00	29.835 
03:50	68.4	68.4	68.4	55	51.6	1	4	315	0.00	29.842 
03:55	68.3	68.3	68.3	56	52.0	1	4	315	0.00	29.848 
04:00	68.1	68.1	68.1	57	52.3	2	4	292	0.00	29.846 
04:05	67.6	67.6	67.6	58	52.3	0	2	315	0.00	29.848 
04:10	67.3	67.3	67.3	58	52.0	1	2	315	0.00	29.849 
04:15	67.3	67.3	67.3	59	52.5	1	3	315	0.00	29.847 
04:20	67.3	67.3	67.3	59	52.5	1	5	315	0.00	29.849 
04:25	67.1	67.1	67.1	60	52.7	1	4	270	0.00	29.851 
04:30	66.8	66.8	66.8	61	52.9	0	1	270	0.00	29.848 
04:35	66.3	66.3	66.3	62	52.9	0	1	270	0.00	29.834 
04:40	66.1	66.1	66.1	62	52.7	1	2	292	0.00	29.838 
04:45	66.0	66.0	66.0	62	52.6	1	3	292	0.00	29.848 
04:50	65.6	65.6	65.6	63	52.7	0	1	292	0.00	29.847 
04:55	65.3	65.3	65.3	63	52.4	0	1	292	0.00	29.848 
05:00	65.0	65.0	65.0	65	52.9	0	1	292	0.00	29.851 
05:05	64.8	64.8	64.8	65	52.8	0	1	292	0.00	29.852 
05:10	64.7	64.7	64.7	65	52.7	0	3	292	0.00	29.852 
05:15	64.3	64.3	64.3	66	52.7	0	2	292	0.00	29.862 
05:20	64.2	64.2	64.2	66	52.6	0	2	292	0.00	29.865 
05:25	64.2	64.2	64.2	65	52.2	0	1	292	0.00	29.869 
05:30	64.2	64.2	64.2	65	52.2	1	3	0	0.00	29.868 
05:35	64.0	64.0	64.0	65	52.0	0	1	338	0.00	29.854 
05:40	63.9	63.9	63.9	65	51.9	0	0	---	0.00	29.853 
05:45	63.7	63.7	63.7	66	52.1	0	1	338	0.00	29.853 
05:50	63.5	63.5	63.5	66	51.9	0	0	---	0.00	29.852 
05:55	63.4	63.4	63.4	66	51.8	0	0	---	0.00	29.856 
06:00	63.2	63.2	63.2	66	51.6	0	1	338	0.00	29.868 
06:05	63.2	63.2	63.2	66	51.6	0	0	---	0.00	29.870 
06:10	63.1	63.1	63.1	67	52.0	0	0	---	0.00	29.875 
06:15	62.9	62.9	62.9	67	51.8	0	0	---	0.00	29.879 
06:20	62.9	62.9	62.9	67	51.8	0	2	338	0.00	29.881 
06:25	62.9	62.9	62.9	68	52.2	0	0	---	0.00	29.887 
06:30	62.7	62.7	62.7	67	51.6	0	1	338	0.00	29.888 
06:35	62.7	62.7	62.7	67	51.6	0	1	338	0.00	29.892 
06:40	62.7	62.7	62.7	67	51.6	0	0	---	0.00	29.895 
06:45	62.6	62.6	62.6	68	51.9	0	0	---	0.00	29.897 
06:50	62.6	62.6	62.6	68	51.9	0	1	338	0.00	29.902 
06:55	62.6	62.6	62.6	68	51.9	0	1	338	0.00	29.911 
07:00	62.7	62.7	62.7	68	52.0	0	0	---	0.00	29.910 
07:05	62.7	62.7	62.7	67	51.6	0	0	---	0.00	29.915 
07:10	62.9	62.9	62.9	67	51.8	0	1	338	0.00	29.918 
07:15	63.1	63.1	63.1	66	51.6	0	3	0	0.00	29.920 
07:20	63.7	63.7	63.7	65	51.7	0	1	0	0.00	29.918 
07:25	64.5	64.5	64.5	64	52.0	2	4	90	0.00	29.925 
07:30	64.8	64.8	64.8	62	51.5	2	5	90	0.00	29.928 
07:35	64.5	64.5	64.5	51	46.0	4	9	112	0.00	29.931 
07:40	64.3	64.3	64.3	47	43.6	4	8	112	0.00	29.931 
07:45	64.2	64.2	64.2	48	44.1	4	11	112	0.00	29.933 
07:50	64.2	64.2	64.2	47	43.5	5	10	112	0.00	29.934 
07:55	64.3	64.3	64.3	47	43.6	4	6	112	0.00	29.933 
08:00	64.3	64.3	64.3	46	43.1	4	7	112	0.00	29.932 
08:05	64.5	64.5	64.5	45	42.7	4	7	112	0.00	29.935 
08:10	64.8	64.8	64.8	45	43.0	4	10	112	0.00	29.936 
08:15	64.8	64.8	64.8	43	41.8	4	9	112	0.00	29.935 
08:20	65.0	65.0	65.0	43	42.0	4	9	90	0.00	29.935 
08:25	65.3	65.3	65.3	42	41.6	4	7	90	0.00	29.934 
08:30	65.6	65.6	65.6	43	42.5	3	6	90	0.00	29.935 
08:35	66.1	66.1	66.1	42	42.3	3	7	112	0.00	29.936 
08:40	66.1	66.1	66.1	41	41.7	4	11	90	0.00	29.938 
08:45	66.4	66.4	66.4	40	41.3	3	6	112	0.00	29.942 
08:50	66.4	66.4	66.4	39	40.7	4	7	90	0.00	29.942 
08:55	66.4	66.4	66.4	39	40.7	4	9	112	0.00	29.938 
09:00	66.6	66.6	66.6	40	41.5	3	6	112	0.00	29.934 
09:05	66.9	66.9	66.9	37	39.8	4	10	112	0.00	29.936 
09:10	66.4	66.4	66.4	39	40.7	4	8	90	0.00	29.936 
09:15	66.3	66.3	66.3	40	41.2	3	7	112	0.00	29.937 
09:20	66.3	66.3	66.3	38	39.9	4	10	112	0.00	29.937 
09:25	66.4	66.4	66.4	39	40.7	4	7	112	0.00	29.932 
09:30	66.9	66.9	66.9	39	41.1	4	9	112	0.00	29.932 
09:35	66.8	66.8	66.8	37	39.7	5	9	112	0.00	29.935 
09:40	66.8	66.8	66.8	39	41.0	3	7	112	0.00	29.936 
09:45	66.9	66.9	66.9	39	41.1	2	6	112	0.00	29.939 
09:50	67.3	67.3	67.3	36	39.4	3	10	112	0.00	29.943 
09:55	67.1	67.1	67.1	37	40.0	3	9	112	0.00	29.943 
10:00	66.9	66.9	66.9	38	40.5	4	8	90	0.00	29.946 
10:05	66.4	66.4	66.4	35	37.9	4	9	112	0.00	29.944 
10:10	66.6	66.6	66.6	39	40.9	3	6	90	0.00	29.940 
10:15	67.8	67.8	67.8	37	40.6	3	5	112	0.00	29.938 
10:20	68.3	68.3	68.3	37	41.0	4	7	112	0.00	29.941 
10:25	68.4	68.4	68.4	32	37.4	3	7	112	0.00	29.939 
10:30	68.1	68.1	68.1	31	36.3	5	10	112	0.00	29.938 
10:35	68.3	68.3	68.3	34	38.8	4	7	112	0.00	29.937 
10:40	68.4	68.4	68.4	35	39.7	4	9	90	0.00	29.939 
10:45	68.1	68.1	68.1	33	37.9	4	10	112	0.00	29.939 
10:50	67.4	67.4	67.4	34	38.1	3	6	90	0.00	29.939 
10:55	67.1	67.1	67.1	34	37.8	3	8	112	0.00	29.946 
11:00	66.8	66.8	66.8	34	37.5	4	7	112	0.00	29.947 
11:05	66.4	66.4	66.4	35	37.9	2	6	112	0.00	29.947 
11:10	66.4	66.4	66.4	35	37.9	2	5	112	0.00	29.947 
11:15	66.3	66.3	66.3	37	39.2	2	5	90	0.00	29.945 
11:20	66.1	66.1	66.1	37	39.1	2	4	90	0.00	29.942 
11:25	66.0	66.0	66.0	40	41.0	1	4	90	0.00	29.941 
11:30	65.8	65.8	65.8	47	45.0	0	1	90	0.00	29.950 
11:35	65.3	65.3	65.3	59	50.6	0	1	90	0.05	29.948 
11:40	63.4	63.4	63.4	64	51.0	0	1	90	0.08	29.944 
11:45	61.6	61.6	61.6	69	51.3	0	1	90	0.06	29.953 
11:50	59.9	59.9	59.9	73	51.2	0	2	90	0.01	29.951 
11:55	59.0	59.0	59.0	70	49.2	0	2	90	0.00	29.945 
12:00	58.7	58.7	58.7	75	50.8	0	1	90	0.00	29.957 
12:05	58.6	58.6	58.6	69	48.5	1	2	90	0.01	29.950 
12:10	58.6	58.6	58.6	77	51.4	0	2	135	0.05	29.948 
12:15	58.1	58.1	58.1	74	49.9	1	4	112	0.00	29.943 
12:20	58.1	58.1	58.1	76	50.6	0	2	112	0.00	29.949 
12:25	58.0	58.0	58.0	75	50.1	1	4	112	0.02	29.945 
12:30	57.6	57.6	57.6	79	51.1	0	1	135	0.00	29.944 
12:35	57.5	57.5	57.5	82	52.0	0	2	135	0.05	29.927 
12:40	57.2	57.2	57.2	83	52.1	0	1	135	0.00	29.934 
12:45	57.3	57.3	57.3	83	52.2	0	1	135	0.00	29.931 
12:50	57.8	57.8	57.8	84	53.0	0	0	---	0.00	29.937 
12:55	58.3	58.3	58.3	84	53.5	0	1	135	0.00	29.937 
13:00	58.9	58.9	58.9	78	52.0	0	1	135	0.00	29.938 
13:05	59.9	59.9	59.9	80	53.7	0	2	135	0.00	29.931 
13:10	61.3	61.3	61.3	70	51.4	1	2	135	0.00	29.933 
13:15	62.4	62.4	62.4	69	52.1	1	4	112	0.00	29.937 
13:20	63.2	63.2	63.2	69	52.9	1	3	112	0.00	29.926 
13:25	63.7	63.7	63.7	65	51.7	1	3	112	0.00	29.924 
13:30	63.9	63.9	63.9	61	50.2	1	2	112	0.00	29.937 
13:35	64.0	64.0	64.0	67	52.8	0	2	112	0.00	29.938 
13:40	63.9	63.9	63.9	67	52.7	0	0	---	0.00	29.935 
13:45	63.9	63.9	63.9	70	53.9	0	0	---	0.00	29.934 
13:50	63.7	63.7	63.7	65	51.7	0	1	112	0.00	29.923 
13:55	63.5	63.5	63.5	66	51.9	1	3	135	0.00	29.921 
14:00	63.4	63.4	63.4	69	53.0	0	0	---	0.00	29.933 
14:05	63.1	63.1	63.1	73	54.3	0	0	---	0.00	29.938 
14:10	63.1	63.1	63.1	76	55.4	0	0	---	0.00	29.945 
14:15	62.9	62.9	62.9	73	54.1	0	1	135	0.00	29.954 
14:20	63.1	63.1	63.1	71	53.5	0	1	135	0.00	29.954 
14:25	63.2	63.2	63.2	67	52.1	0	1	135	0.00	29.955 
14:30	63.5	63.5	63.5	67	52.3	0	1	135	0.00	29.958 
14:35	63.9	63.9	63.9	64	51.5	0	1	135	0.00	29.956 
14:40	64.0	64.0	64.0	63	51.1	0	2	135	0.00	29.952 
14:45	64.0	64.0	64.0	62	50.7	0	2	90	0.00	29.941 
14:50	64.2	64.2	64.2	60	50.0	1	2	90	0.00	29.938 
14:55	64.2	64.2	64.2	60	50.0	1	3	90	0.00	29.933 
15:00	64.3	64.3	64.3	57	48.7	2	3	90	0.00	29.926 
15:05	64.5	64.5	64.5	56	48.4	1	3	90	0.00	29.925 
15:10	64.8	64.8	64.8	60	50.6	1	3	90	0.00	29.924 
15:15	65.0	65.0	65.0	60	50.8	1	4	90	0.00	29.923 
15:20	65.3	65.3	65.3	60	51.1	1	3	112	0.00	29.924 
15:25	65.8	65.8	65.8	59	51.1	2	6	112	0.00	29.925 
15:30	66.3	66.3	66.3	55	49.6	3	5	112	0.00	29.925 
15:35	66.9	66.9	66.9	52	48.7	3	7	90	0.00	29.921 
15:40	67.4	67.4	67.4	55	50.7	3	6	90	0.00	29.920 
15:45	67.6	67.6	67.6	50	48.3	2	6	45	0.00	29.916 
15:50	67.1	67.1	67.1	47	46.2	4	9	112	0.00	29.909 
15:55	67.1	67.1	67.1	48	46.7	4	9	112	0.00	29.909 
16:00	67.1	67.1	67.1	48	46.7	5	11	112	0.00	29.906 
16:05	67.1	67.1	67.1	49	47.3	5	11	90	0.00	29.908 
16:10	67.3	67.3	67.3	52	49.1	3	6	112	0.00	29.916 
16:15	67.4	67.4	67.4	53	49.7	2	6	45	0.00	29.921 
16:20	66.9	66.9	66.9	52	48.7	4	12	112	0.00	29.910 
16:25	66.1	66.1	66.1	52	48.0	5	12	90	0.00	29.906 
16:30	65.5	65.5	65.5	56	49.4	3	9	90	0.00	29.905 
16:35	65.3	65.3	65.3	54	48.2	5	13	112	0.00	29.906 
16:40	65.0	65.0	65.0	54	47.9	5	12	112	0.00	29.904 
16:45	64.8	64.8	64.8	50	45.7	6	11	112	0.00	29.899 
16:50	64.8	64.8	64.8	53	47.3	4	11	112	0.00	29.894 
16:55	65.0	65.0	65.0	51	46.4	4	10	112	0.00	29.893 
17:00	65.0	65.0	65.0	50	45.9	4	10	112	0.00	29.893 
17:05	65.0	65.0	65.0	52	46.9	3	6	90	0.00	29.888 
17:10	65.0	65.0	65.0	51	46.4	5	11	112	0.00	29.887 
17:15	65.2	65.2	65.2	52	47.1	4	10	90	0.00	29.881 
17:20	65.3	65.3	65.3	52	47.2	4	6	112	0.00	29.878 
17:25	65.5	65.5	65.5	50	46.4	4	8	112	0.00	29.878 
17:30	65.5	65.5	65.5	52	47.4	4	10	90	0.00	29.877 
17:35	65.6	65.6	65.6	53	48.0	4	7	90	0.00	29.877 
17:40	65.6	65.6	65.6	53	48.0	4	7	90	0.00	29.878 
17:45	65.8	65.8	65.8	51	47.2	4	7	112	0.00	29.879 
17:50	65.6	65.6	65.6	52	47.5	5	9	90	0.00	29.881 
17:55	65.5	65.5	65.5	53	47.9	4	7	112	0.00	29.881 
18:00	65.3	65.3	65.3	55	48.7	4	9	90	0.00	29.880 
18:05	65.3	65.3	65.3	55	48.7	4	7	90	0.00	29.884 
18:10	65.2	65.2	65.2	55	48.6	3	6	112	0.00	29.879 
18:15	65.0	65.0	65.0	55	48.4	3	9	112	0.00	29.878 
18:20	65.0	65.0	65.0	55	48.4	3	7	90	0.00	29.878 
18:25	65.0	65.0	65.0	55	48.4	3	5	112	0.00	29.877 
18:30	65.0	65.0	65.0	56	48.9	2	6	112	0.00	29.876 
18:35	65.0	65.0	65.0	57	49.4	2	5	90	0.00	29.876 
18:40	64.8	64.8	64.8	58	49.7	2	5	90	0.00	29.878 
18:45	64.7	64.7	64.7	59	50.0	2	4	112	0.00	29.878 
18:50	64.5	64.5	64.5	58	49.4	3	5	90	0.00	29.878 
18:55	64.3	64.3	64.3	58	49.2	2	6	90	0.00	29.879 
19:00	64.2	64.2	64.2	59	49.6	3	7	90	0.00	29.880 
19:05	63.9	63.9	63.9	60	49.7	2	4	90	0.00	29.877 
19:10	63.5	63.5	63.5	61	49.8	2	4	90	0.00	29.877 
19:15	63.2	63.2	63.2	62	50.0	2	4	90	0.00	29.878 
19:20	62.9	62.9	62.9	63	50.1	2	3	90	0.00	29.878 
19:25	62.7	62.7	62.7	64	50.3	2	5	90	0.00	29.879 
19:30	62.4	62.4	62.4	65	50.5	2	5	112	0.00	29.879 
19:35	62.1	62.1	62.1	66	50.6	2	4	112	0.00	29.880 
19:40	61.6	61.6	61.6	67	50.5	3	5	90	0.00	29.880 
19:45	61.3	61.3	61.3	68	50.6	2	4	90	0.00	29.882 
19:50	61.0	61.0	61.0	68	50.4	1	4	90	0.00	29.885 
19:55	60.7	60.7	60.7	69	50.5	1	3	90	0.00	29.894 
20:00	60.2	60.2	60.2	70	50.4	1	3	90	0.00	29.897 
20:05	59.9	59.9	59.9	71	50.5	1	3	90	0.00	29.901 
20:10	59.8	59.8	59.8	71	50.4	2	4	45	0.00	29.912 
20:15	59.8	59.8	59.8	71	50.4	2	4	112	0.00	29.912 
20:20	59.8	59.8	59.8	70	50.0	1	5	112	0.00	29.911 
20:25	59.6	59.6	59.6	71	50.2	2	5	68	0.00	29.910 
20:30	59.6	59.6	59.6	72	50.6	2	5	112	0.00	29.910 
20:35	59.5	59.5	59.5	73	50.8	1	3	90	0.00	29.911 
20:40	59.2	59.2	59.2	73	50.5	2	6	112	0.00	29.911 
20:45	59.0	59.0	59.0	73	50.4	3	5	112	0.00	29.908 
20:50	58.9	58.9	58.9	74	50.6	2	5	112	0.00	29.908 
20:55	58.7	58.7	58.7	74	50.4	2	6	90	0.00	29.910 
21:00	58.4	58.4	58.4	75	50.5	1	5	90	0.00	29.914 
21:05	58.3	58.3	58.3	76	50.8	2	5	90	0.00	29.915 
21:10	58.1	58.1	58.1	76	50.6	3	6	90	0.00	29.914 
21:15	58.0	58.0	58.0	76	50.5	2	5	90	0.00	29.915 
21:20	57.8	57.8	57.8	77	50.6	2	5	90	0.00	29.918 
21:25	57.6	57.6	57.6	77	50.4	2	6	112	0.00	29.918 
21:30	57.6	57.6	57.6	77	50.4	1	4	90	0.00	29.926 
21:35	57.5	57.5	57.5	77	50.3	2	4	90	0.00	29.927 
21:40	57.5	57.5	57.5	77	50.3	2	7	90	0.00	29.928 
21:45	57.5	57.5	57.5	77	50.3	2	6	90	0.00	29.925 
21:50	57.5	57.5	57.5	77	50.3	3	6	90	0.00	29.925 
21:55	57.3	57.3	57.3	77	50.1	3	6	112	0.00	29.920 
22:00	57.3	57.3	57.3	77	50.1	4	7	90	0.00	29.914 
22:05	57.3	57.3	57.3	78	50.5	3	5	112	0.00	29.912 
22:10	57.3	57.3	57.3	75	49.4	3	9	112	0.00	29.910 
22:15	57.6	57.6	57.6	72	48.6	4	7	90	0.00	29.906 
22:20	58.0	58.0	58.0	71	48.6	3	6	112	0.00	29.905 
22:25	58.0	58.0	58.0	70	48.3	3	6	112	0.00	29.902 
22:30	58.0	58.0	58.0	70	48.3	3	6	90	0.00	29.899 
22:35	57.8	57.8	57.8	70	48.1	3	7	112	0.00	29.903 
22:40	57.6	57.6	57.6	71	48.3	5	10	112	0.00	29.902 
22:45	57.2	57.2	57.2	72	48.3	3	7	90	0.00	29.899 
22:50	56.7	56.7	56.7	74	48.5	3	7	112	0.00	29.897 
22:55	56.5	56.5	56.5	74	48.3	3	6	90	0.00	29.898 
23:00	56.3	56.3	56.3	73	47.8	3	5	112	0.00	29.899 
23:05	56.3	56.3	56.3	72	47.4	3	6	112	0.00	29.905 
23:10	56.5	56.5	56.5	70	46.8	4	7	112	0.00	29.902 
23:15	56.5	56.5	56.5	70	46.8	3	7	112	0.00	29.900 
23:20	56.5	56.5	56.5	70	46.8	5	9	112	0.00	29.897 
23:25	56.3	56.3	56.3	70	46.6	4	9	112	0.00	29.897 
23:30	56.2	56.2	56.2	71	46.9	4	6	112	0.00	29.895 
23:35	56.0	56.0	56.0	71	46.7	4	6	112	0.00	29.897 
23:40	55.9	55.9	55.9	71	46.6	3	6	112	0.00	29.894 
23:45	55.9	55.9	55.9	70	46.3	4	13	112	0.00	29.895 
23:50	55.9	55.9	55.9	71	46.6	3	6	112	0.00	29.897 
23:55	55.7	55.7	55.7	72	46.8	4	7	90	0.00	29.898 

CoCoRaHS
IN-AL-39
A2 Web Hosting
Creative Commons License
GoDaddy
Look for:

loaded 2017-12-13 15:29:50 • last modified 2010-11-18 10:43:29
Privacy PolicyDisclaimer
• wx.awcolley.com is powered by PmWiki v.2002016 •
• all content (unless otherwise noted) © 2017 A W Colley